sensor_id;sensor_type;location;lat;lon;timestamp;pressure;altitude;pressure_sealevel;temperature;humidity
70370;BME280;57790;51.356;-2.906;2023-06-22T00:02:12;101919.06;;;21.50;100.00
70370;BME280;57790;51.356;-2.906;2023-06-22T00:05:12;101920.31;;;21.47;100.00
70370;BME280;57790;51.356;-2.906;2023-06-22T00:08:13;101928.00;;;21.44;100.00
70370;BME280;57790;51.356;-2.906;2023-06-22T00:11:13;101929.88;;;21.43;100.00
70370;BME280;57790;51.356;-2.906;2023-06-22T00:14:14;101939.19;;;21.41;100.00
70370;BME280;57790;51.356;-2.906;2023-06-22T00:17:14;101940.44;;;21.38;100.00
70370;BME280;57790;51.356;-2.906;2023-06-22T00:20:15;101936.06;;;21.37;100.00
70370;BME280;57790;51.356;-2.906;2023-06-22T00:23:16;101927.97;;;21.30;100.00
70370;BME280;57790;51.356;-2.906;2023-06-22T00:26:18;101936.06;;;21.30;100.00
70370;BME280;57790;51.356;-2.906;2023-06-22T00:29:18;101938.69;;;21.24;100.00
70370;BME280;57790;51.356;-2.906;2023-06-22T00:32:18;101941.41;;;21.24;100.00
70370;BME280;57790;51.356;-2.906;2023-06-22T00:35:19;101946.59;;;21.19;100.00
70370;BME280;57790;51.356;-2.906;2023-06-22T00:38:19;101940.78;;;21.15;100.00
70370;BME280;57790;51.356;-2.906;2023-06-22T00:41:20;101937.63;;;21.12;100.00
70370;BME280;57790;51.356;-2.906;2023-06-22T00:44:21;101935.13;;;21.10;100.00
70370;BME280;57790;51.356;-2.906;2023-06-22T00:47:21;101935.13;;;21.10;100.00
70370;BME280;57790;51.356;-2.906;2023-06-22T00:50:25;101930.78;;;21.09;100.00
70370;BME280;57790;51.356;-2.906;2023-06-22T00:53:26;101925.38;;;21.09;100.00
70370;BME280;57790;51.356;-2.906;2023-06-22T00:56:26;101922.06;;;21.07;100.00
70370;BME280;57790;51.356;-2.906;2023-06-22T00:59:30;101925.38;;;21.02;100.00
70370;BME280;57790;51.356;-2.906;2023-06-22T01:02:32;101938.22;;;21.00;100.00
70370;BME280;57790;51.356;-2.906;2023-06-22T01:05:33;101938.81;;;20.96;100.00
70370;BME280;57790;51.356;-2.906;2023-06-22T01:08:42;101927.41;;;20.94;100.00
70370;BME280;57790;51.356;-2.906;2023-06-22T01:11:53;101929.28;;;20.93;100.00
70370;BME280;57790;51.356;-2.906;2023-06-22T01:15:06;101937.13;;;20.88;100.00
70370;BME280;57790;51.356;-2.906;2023-06-22T01:18:09;101945.19;;;20.82;100.00
70370;BME280;57790;51.356;-2.906;2023-06-22T01:21:14;101945.59;;;20.78;100.00
70370;BME280;57790;51.356;-2.906;2023-06-22T01:24:27;101957.59;;;20.76;100.00
70370;BME280;57790;51.356;-2.906;2023-06-22T01:27:46;101957.81;;;20.74;100.00
70370;BME280;57790;51.356;-2.906;2023-06-22T01:30:49;101945.59;;;20.78;100.00
70370;BME280;57790;51.356;-2.906;2023-06-22T01:33:59;101949.53;;;20.76;100.00
70370;BME280;57790;51.356;-2.906;2023-06-22T01:37:01;101966.31;;;20.71;100.00
70370;BME280;57790;51.356;-2.906;2023-06-22T01:40:04;101964.84;;;20.69;100.00
70370;BME280;57790;51.356;-2.906;2023-06-22T01:43:06;101967.72;;;20.67;100.00
70370;BME280;57790;51.356;-2.906;2023-06-22T01:46:07;101967.47;;;20.62;100.00
70370;BME280;57790;51.356;-2.906;2023-06-22T01:49:08;101955.25;;;20.60;100.00
70370;BME280;57790;51.356;-2.906;2023-06-22T01:52:09;101955.44;;;20.58;100.00
70370;BME280;57790;51.356;-2.906;2023-06-22T01:55:09;101952.56;;;20.60;100.00
70370;BME280;57790;51.356;-2.906;2023-06-22T01:58:09;101955.44;;;20.58;100.00
70370;BME280;57790;51.356;-2.906;2023-06-22T02:01:11;101957.72;;;20.55;100.00
70370;BME280;57790;51.356;-2.906;2023-06-22T02:04:46;101957.66;;;20.48;100.00
70370;BME280;57790;51.356;-2.906;2023-06-22T02:08:12;101958.88;;;20.45;100.00
70370;BME280;57790;51.356;-2.906;2023-06-22T02:11:18;101958.06;;;20.45;100.00
70370;BME280;57790;51.356;-2.906;2023-06-22T02:14:24;101965.75;;;20.48;100.00
70370;BME280;57790;51.356;-2.906;2023-06-22T02:17:26;101958.25;;;20.43;100.00
70370;BME280;57790;51.356;-2.906;2023-06-22T02:20:26;101956.09;;;20.39;100.00
70370;BME280;57790;51.356;-2.906;2023-06-22T02:23:27;101961.31;;;20.40;100.00
70370;BME280;57790;51.356;-2.906;2023-06-22T02:26:27;101968.56;;;20.40;100.00
70370;BME280;57790;51.356;-2.906;2023-06-22T02:29:28;101970.59;;;20.38;100.00
70370;BME280;57790;51.356;-2.906;2023-06-22T02:32:29;101966.44;;;20.35;100.00
70370;BME280;57790;51.356;-2.906;2023-06-22T02:35:29;101973.25;;;20.31;100.00
70370;BME280;57790;51.356;-2.906;2023-06-22T02:38:32;101968.66;;;20.25;100.00
70370;BME280;57790;51.356;-2.906;2023-06-22T02:41:36;101977.38;;;20.27;100.00
70370;BME280;57790;51.356;-2.906;2023-06-22T02:44:37;101981.28;;;20.25;100.00
70370;BME280;57790;51.356;-2.906;2023-06-22T02:47:37;101983.34;;;20.23;100.00
70370;BME280;57790;51.356;-2.906;2023-06-22T02:50:38;101970.66;;;20.16;100.00
70370;BME280;57790;51.356;-2.906;2023-06-22T02:53:38;101967.16;;;20.16;100.00
70370;BME280;57790;51.356;-2.906;2023-06-22T02:56:38;101971.06;;;20.13;100.00
70370;BME280;57790;51.356;-2.906;2023-06-22T02:59:40;101966.91;;;20.11;100.00
70370;BME280;57790;51.356;-2.906;2023-06-22T03:02:45;101968.94;;;20.09;100.00
70370;BME280;57790;51.356;-2.906;2023-06-22T03:05:46;101961.88;;;20.08;100.00
70370;BME280;57790;51.356;-2.906;2023-06-22T03:08:46;101966.63;;;20.06;100.00
70370;BME280;57790;51.356;-2.906;2023-06-22T03:11:50;101970.16;;;20.06;100.00
70370;BME280;57790;51.356;-2.906;2023-06-22T03:14:50;101968.06;;;20.02;100.00
70370;BME280;57790;51.356;-2.906;2023-06-22T03:17:51;101969.72;;;20.03;100.00
70370;BME280;57790;51.356;-2.906;2023-06-22T03:20:51;101971.16;;;19.99;100.00
70370;BME280;57790;51.356;-2.906;2023-06-22T03:23:52;101973.56;;;19.94;100.00
70370;BME280;57790;51.356;-2.906;2023-06-22T03:26:52;101975.44;;;19.93;100.00
70370;BME280;57790;51.356;-2.906;2023-06-22T03:29:52;101969.63;;;19.89;100.00
70370;BME280;57790;51.356;-2.906;2023-06-22T03:32:53;101972.09;;;19.91;100.00
70370;BME280;57790;51.356;-2.906;2023-06-22T03:35:53;101964.44;;;19.88;100.00
70370;BME280;57790;51.356;-2.906;2023-06-22T03:38:54;101960.91;;;19.87;100.00
70370;BME280;57790;51.356;-2.906;2023-06-22T03:41:54;101969.19;;;19.86;100.00
70370;BME280;57790;51.356;-2.906;2023-06-22T03:44:55;101968.34;;;19.85;100.00
70370;BME280;57790;51.356;-2.906;2023-06-22T03:47:55;101971.59;;;19.81;100.00
70370;BME280;57790;51.356;-2.906;2023-06-22T03:50:56;101968.66;;;19.76;100.00
70370;BME280;57790;51.356;-2.906;2023-06-22T03:53:56;101972.38;;;19.75;100.00
70370;BME280;57790;51.356;-2.906;2023-06-22T03:56:57;101972.56;;;19.73;100.00
70370;BME280;57790;51.356;-2.906;2023-06-22T03:59:59;101979.38;;;19.69;100.00
70370;BME280;57790;51.356;-2.906;2023-06-22T04:02:59;101975.03;;;19.68;100.00
70370;BME280;57790;51.356;-2.906;2023-06-22T04:06:00;101976.00;;;19.67;100.00
70370;BME280;57790;51.356;-2.906;2023-06-22T04:09:00;101974.94;;;19.61;100.00
70370;BME280;57790;51.356;-2.906;2023-06-22T04:12:01;101981.72;;;19.57;100.00
70370;BME280;57790;51.356;-2.906;2023-06-22T04:15:04;101979.44;;;19.54;100.00
70370;BME280;57790;51.356;-2.906;2023-06-22T04:18:05;101976.75;;;19.54;100.00
70370;BME280;57790;51.356;-2.906;2023-06-22T04:21:05;101974.38;;;19.51;100.00
70370;BME280;57790;51.356;-2.906;2023-06-22T04:24:06;101972.53;;;19.52;100.00
70370;BME280;57790;51.356;-2.906;2023-06-22T04:27:06;101974.31;;;19.45;100.00
70370;BME280;57790;51.356;-2.906;2023-06-22T04:30:07;101975.34;;;19.44;100.00
70370;BME280;57790;51.356;-2.906;2023-06-22T04:33:08;101972.84;;;19.42;100.00
70370;BME280;57790;51.356;-2.906;2023-06-22T04:36:09;101973.69;;;19.43;100.00
70370;BME280;57790;51.356;-2.906;2023-06-22T04:39:14;101985.91;;;19.45;100.00
70370;BME280;57790;51.356;-2.906;2023-06-22T04:42:15;101974.97;;;19.47;100.00
70370;BME280;57790;51.356;-2.906;2023-06-22T04:45:15;101970.41;;;19.47;100.00
70370;BME280;57790;51.356;-2.906;2023-06-22T04:48:16;101971.25;;;19.48;100.00
70370;BME280;57790;51.356;-2.906;2023-06-22T04:51:16;101972.06;;;19.48;100.00
70370;BME280;57790;51.356;-2.906;2023-06-22T04:54:21;101976.81;;;19.46;100.00
70370;BME280;57790;51.356;-2.906;2023-06-22T04:57:22;101974.97;;;19.47;100.00
70370;BME280;57790;51.356;-2.906;2023-06-22T05:00:32;101981.75;;;19.43;100.00
70370;BME280;57790;51.356;-2.906;2023-06-22T05:03:36;101985.47;;;19.42;100.00
70370;BME280;57790;51.356;-2.906;2023-06-22T05:06:37;101990.84;;;19.42;100.00
70370;BME280;57790;51.356;-2.906;2023-06-22T05:09:37;101987.50;;;19.40;100.00
70370;BME280;57790;51.356;-2.906;2023-06-22T05:12:38;101985.84;;;19.39;100.00
70370;BME280;57790;51.356;-2.906;2023-06-22T05:15:39;101995.41;;;19.41;100.00
70370;BME280;57790;51.356;-2.906;2023-06-22T05:18:40;101988.16;;;19.42;100.00
70370;BME280;57790;51.356;-2.906;2023-06-22T05:21:41;101991.03;;;19.40;100.00
70370;BME280;57790;51.356;-2.906;2023-06-22T05:24:43;101982.97;;;19.40;100.00
70370;BME280;57790;51.356;-2.906;2023-06-22T05:27:43;101985.66;;;19.40;100.00
70370;BME280;57790;51.356;-2.906;2023-06-22T05:30:44;101988.16;;;19.42;100.00
70370;BME280;57790;51.356;-2.906;2023-06-22T05:33:45;101996.88;;;19.44;100.00
70370;BME280;57790;51.356;-2.906;2023-06-22T05:36:46;101996.88;;;19.44;100.00
70370;BME280;57790;51.356;-2.906;2023-06-22T05:39:46;101999.34;;;19.45;100.00
70370;BME280;57790;51.356;-2.906;2023-06-22T05:42:47;101988.59;;;19.45;100.00
70370;BME280;57790;51.356;-2.906;2023-06-22T05:45:47;101993.78;;;19.47;100.00
70370;BME280;57790;51.356;-2.906;2023-06-22T05:48:48;101989.88;;;19.49;100.00
70370;BME280;57790;51.356;-2.906;2023-06-22T05:51:48;101982.44;;;19.51;100.00
70370;BME280;57790;51.356;-2.906;2023-06-22T05:54:48;101988.34;;;19.55;100.00
70370;BME280;57790;51.356;-2.906;2023-06-22T05:57:49;101989.16;;;19.55;100.00
70370;BME280;57790;51.356;-2.906;2023-06-22T06:00:49;101996.03;;;19.58;100.00
70370;BME280;57790;51.356;-2.906;2023-06-22T06:03:50;101997.47;;;19.60;100.00
70370;BME280;57790;51.356;-2.906;2023-06-22T06:06:52;101998.75;;;19.65;100.00
70370;BME280;57790;51.356;-2.906;2023-06-22T06:09:53;101998.41;;;19.68;100.00
70370;BME280;57790;51.356;-2.906;2023-06-22T06:12:53;102001.53;;;19.71;100.00
70370;BME280;57790;51.356;-2.906;2023-06-22T06:15:53;102004.47;;;19.76;100.00
70370;BME280;57790;51.356;-2.906;2023-06-22T06:18:57;101997.88;;;19.79;100.00
70370;BME280;57790;51.356;-2.906;2023-06-22T06:21:58;102001.88;;;19.83;100.00
70370;BME280;57790;51.356;-2.906;2023-06-22T06:24:59;102011.03;;;19.88;100.00
70370;BME280;57790;51.356;-2.906;2023-06-22T06:27:59;102007.75;;;19.93;100.00
70370;BME280;57790;51.356;-2.906;2023-06-22T06:30:59;102009.88;;;19.98;100.00
70370;BME280;57790;51.356;-2.906;2023-06-22T06:34:00;102008.25;;;20.03;100.00
70370;BME280;57790;51.356;-2.906;2023-06-22T06:37:00;102014.91;;;20.07;100.00
70370;BME280;57790;51.356;-2.906;2023-06-22T06:40:00;102010.16;;;20.09;100.00
70370;BME280;57790;51.356;-2.906;2023-06-22T06:43:01;102017.88;;;20.12;100.00
70370;BME280;57790;51.356;-2.906;2023-06-22T06:46:01;102012.94;;;20.16;100.00
70370;BME280;57790;51.356;-2.906;2023-06-22T06:49:03;102015.03;;;20.20;100.00
70370;BME280;57790;51.356;-2.906;2023-06-22T06:52:04;102020.47;;;20.27;100.00
70370;BME280;57790;51.356;-2.906;2023-06-22T06:55:05;102022.38;;;20.33;100.00
70370;BME280;57790;51.356;-2.906;2023-06-22T06:58:09;102019.28;;;20.36;100.00
70370;BME280;57790;51.356;-2.906;2023-06-22T07:01:12;102025.97;;;20.40;100.00
70370;BME280;57790;51.356;-2.906;2023-06-22T07:04:13;102031.81;;;20.44;100.00
70370;BME280;57790;51.356;-2.906;2023-06-22T07:07:13;102036.63;;;20.48;100.00
70370;BME280;57790;51.356;-2.906;2023-06-22T07:10:13;102029.81;;;20.53;100.00
70370;BME280;57790;51.356;-2.906;2023-06-22T07:13:15;102036.09;;;20.60;100.00
70370;BME280;57790;51.356;-2.906;2023-06-22T07:16:15;102036.53;;;20.63;100.00
70370;BME280;57790;51.356;-2.906;2023-06-22T07:19:16;102033.22;;;20.68;100.00
70370;BME280;57790;51.356;-2.906;2023-06-22T07:22:16;102039.06;;;20.71;100.00
70370;BME280;57790;51.356;-2.906;2023-06-22T07:25:16;102038.06;;;20.79;100.00
70370;BME280;57790;51.356;-2.906;2023-06-22T07:28:17;102033.31;;;20.81;100.00
70370;BME280;57790;51.356;-2.906;2023-06-22T07:31:18;102027.53;;;20.84;100.00
70370;BME280;57790;51.356;-2.906;2023-06-22T07:34:19;102023.63;;;20.87;100.00
70370;BME280;57790;51.356;-2.906;2023-06-22T07:37:19;102029.03;;;20.93;100.00
70370;BME280;57790;51.356;-2.906;2023-06-22T07:40:20;102029.44;;;20.97;100.00
70370;BME280;57790;51.356;-2.906;2023-06-22T07:43:20;102020.38;;;20.98;100.00
70370;BME280;57790;51.356;-2.906;2023-06-22T07:46:21;102021.63;;;21.02;100.00
70370;BME280;57790;51.356;-2.906;2023-06-22T07:49:21;102020.19;;;21.06;100.00
70370;BME280;57790;51.356;-2.906;2023-06-22T07:52:22;102017.69;;;21.11;100.00
70370;BME280;57790;51.356;-2.906;2023-06-22T07:55:22;102018.16;;;21.15;100.00
70370;BME280;57790;51.356;-2.906;2023-06-22T07:58:23;102023.56;;;21.21;100.00
70370;BME280;57790;51.356;-2.906;2023-06-22T08:01:23;102016.59;;;21.27;100.00
70370;BME280;57790;51.356;-2.906;2023-06-22T08:04:23;102016.59;;;21.33;100.00
70370;BME280;57790;51.356;-2.906;2023-06-22T08:07:24;102022.00;;;21.40;100.00
70370;BME280;57790;51.356;-2.906;2023-06-22T08:10:24;102018.50;;;21.46;100.00
70370;BME280;57790;51.356;-2.906;2023-06-22T08:13:25;102022.03;;;21.53;100.00
70370;BME280;57790;51.356;-2.906;2023-06-22T08:16:28;102016.88;;;21.58;100.00
70370;BME280;57790;51.356;-2.906;2023-06-22T08:19:28;102015.03;;;21.65;100.00
70370;BME280;57790;51.356;-2.906;2023-06-22T08:22:29;102019.41;;;21.73;100.00
70370;BME280;57790;51.356;-2.906;2023-06-22T08:25:30;102026.06;;;21.77;100.00
70370;BME280;57790;51.356;-2.906;2023-06-22T08:28:30;102019.44;;;21.86;100.00
70370;BME280;57790;51.356;-2.906;2023-06-22T08:31:31;102024.63;;;21.94;100.00
70370;BME280;57790;51.356;-2.906;2023-06-22T08:34:34;102021.13;;;22.01;100.00
70370;BME280;57790;51.356;-2.906;2023-06-22T08:37:35;102024.66;;;22.08;100.00
70370;BME280;57790;51.356;-2.906;2023-06-22T08:40:35;102019.28;;;22.14;100.00
70370;BME280;57790;51.356;-2.906;2023-06-22T08:43:36;102015.09;;;22.25;100.00
70370;BME280;57790;51.356;-2.906;2023-06-22T08:46:36;102010.75;;;22.31;100.00
70370;BME280;57790;51.356;-2.906;2023-06-22T08:49:39;102011.34;;;22.39;100.00
70370;BME280;57790;51.356;-2.906;2023-06-22T08:52:40;102011.78;;;22.43;100.00
70370;BME280;57790;51.356;-2.906;2023-06-22T08:55:43;102016.97;;;22.51;100.00
70370;BME280;57790;51.356;-2.906;2023-06-22T08:58:43;102019.47;;;22.59;100.00
70370;BME280;57790;51.356;-2.906;2023-06-22T09:01:44;102030.03;;;22.67;100.00
70370;BME280;57790;51.356;-2.906;2023-06-22T09:04:48;102026.50;;;22.73;100.00
70370;BME280;57790;51.356;-2.906;2023-06-22T09:07:58;102039.78;;;22.81;100.00
70370;BME280;57790;51.356;-2.906;2023-06-22T09:10:59;102038.78;;;22.89;100.00
70370;BME280;57790;51.356;-2.906;2023-06-22T09:13:59;102040.59;;;22.95;100.00
70370;BME280;57790;51.356;-2.906;2023-06-22T09:17:00;102043.31;;;23.02;100.00
70370;BME280;57790;51.356;-2.906;2023-06-22T09:20:00;102044.72;;;23.11;100.00
70370;BME280;57790;51.356;-2.906;2023-06-22T09:23:01;102050.94;;;23.18;100.00
70370;BME280;57790;51.356;-2.906;2023-06-22T09:26:01;102053.63;;;23.25;100.00
70370;BME280;57790;51.356;-2.906;2023-06-22T09:29:05;102054.44;;;23.32;100.00
70370;BME280;57790;51.356;-2.906;2023-06-22T09:32:06;102056.66;;;23.41;100.00
70370;BME280;57790;51.356;-2.906;2023-06-22T09:35:07;102051.47;;;23.47;100.00
70370;BME280;57790;51.356;-2.906;2023-06-22T09:38:08;102055.56;;;23.56;100.00
70370;BME280;57790;51.356;-2.906;2023-06-22T09:41:09;102055.78;;;23.61;100.00
70370;BME280;57790;51.356;-2.906;2023-06-22T09:44:09;102061.16;;;23.67;100.00
70370;BME280;57790;51.356;-2.906;2023-06-22T09:47:09;102064.06;;;23.72;100.00
70370;BME280;57790;51.356;-2.906;2023-06-22T09:50:10;102062.97;;;23.80;100.00
70370;BME280;57790;51.356;-2.906;2023-06-22T09:53:10;102066.25;;;23.89;100.00
70370;BME280;57790;51.356;-2.906;2023-06-22T09:56:10;102067.03;;;23.96;100.00
70370;BME280;57790;51.356;-2.906;2023-06-22T09:59:15;102064.28;;;24.02;100.00
70370;BME280;57790;51.356;-2.906;2023-06-22T10:02:15;102063.41;;;24.09;100.00
70370;BME280;57790;51.356;-2.906;2023-06-22T10:05:15;102058.56;;;24.17;100.00
70370;BME280;57790;51.356;-2.906;2023-06-22T10:08:16;102053.06;;;24.24;100.00
70370;BME280;57790;51.356;-2.906;2023-06-22T10:11:17;102058.47;;;24.30;100.00
70370;BME280;57790;51.356;-2.906;2023-06-22T10:14:17;102056.53;;;24.38;100.00
70370;BME280;57790;51.356;-2.906;2023-06-22T10:17:17;102064.22;;;24.41;100.00
70370;BME280;57790;51.356;-2.906;2023-06-22T10:20:18;102065.63;;;24.43;100.00
70370;BME280;57790;51.356;-2.906;2023-06-22T10:23:19;102066.47;;;24.44;100.00
70370;BME280;57790;51.356;-2.906;2023-06-22T10:26:20;102073.97;;;24.48;100.00
70370;BME280;57790;51.356;-2.906;2023-06-22T10:29:20;102074.13;;;24.53;100.00
70370;BME280;57790;51.356;-2.906;2023-06-22T10:32:21;102078.56;;;24.48;100.00
70370;BME280;57790;51.356;-2.906;2023-06-22T10:35:21;102080.81;;;24.51;100.00
70370;BME280;57790;51.356;-2.906;2023-06-22T10:38:21;102081.56;;;24.58;100.00
70370;BME280;57790;51.356;-2.906;2023-06-22T10:41:22;102080.94;;;24.62;100.00
70370;BME280;57790;51.356;-2.906;2023-06-22T10:44:22;102078.59;;;24.66;100.00
70370;BME280;57790;51.356;-2.906;2023-06-22T10:47:23;102075.88;;;24.66;100.00
70370;BME280;57790;51.356;-2.906;2023-06-22T10:50:24;102075.19;;;24.71;100.00
70370;BME280;57790;51.356;-2.906;2023-06-22T10:53:25;102076.84;;;24.72;100.00
70370;BME280;57790;51.356;-2.906;2023-06-22T10:56:25;102075.59;;;24.74;100.00
70370;BME280;57790;51.356;-2.906;2023-06-22T10:59:26;102078.31;;;24.74;100.00
70370;BME280;57790;51.356;-2.906;2023-06-22T11:02:27;102072.66;;;24.76;100.00
70370;BME280;57790;51.356;-2.906;2023-06-22T11:05:28;102078.59;;;24.84;100.00
70370;BME280;57790;51.356;-2.906;2023-06-22T11:08:29;102077.97;;;24.89;100.00
70370;BME280;57790;51.356;-2.906;2023-06-22T11:11:29;102079.63;;;24.90;100.00
70370;BME280;57790;51.356;-2.906;2023-06-22T11:14:29;102076.59;;;24.98;100.00
70370;BME280;57790;51.356;-2.906;2023-06-22T11:17:35;102075.28;;;25.07;100.00
70370;BME280;57790;51.356;-2.906;2023-06-22T11:20:36;102076.00;;;25.14;100.00
70370;BME280;57790;51.356;-2.906;2023-06-22T11:23:38;102071.81;;;25.18;100.00
70370;BME280;57790;51.356;-2.906;2023-06-22T11:26:39;102073.84;;;25.23;100.00
70370;BME280;57790;51.356;-2.906;2023-06-22T11:29:39;102065.00;;;25.28;100.00
70370;BME280;57790;51.356;-2.906;2023-06-22T11:32:40;102068.94;;;25.32;100.00
70370;BME280;57790;51.356;-2.906;2023-06-22T11:35:41;102069.91;;;25.37;100.00
70370;BME280;57790;51.356;-2.906;2023-06-22T11:38:42;102070.28;;;25.41;100.00
70370;BME280;57790;51.356;-2.906;2023-06-22T11:41:42;102074.03;;;25.40;100.00
70370;BME280;57790;51.356;-2.906;2023-06-22T11:44:42;102075.00;;;25.45;100.00
70370;BME280;57790;51.356;-2.906;2023-06-22T11:47:44;102078.13;;;25.49;100.00
70370;BME280;57790;51.356;-2.906;2023-06-22T11:50:44;102077.41;;;25.54;100.00
70370;BME280;57790;51.356;-2.906;2023-06-22T11:53:45;102059.00;;;25.56;100.00
70370;BME280;57790;51.356;-2.906;2023-06-22T11:56:45;102069.03;;;25.55;100.00
70370;BME280;57790;51.356;-2.906;2023-06-22T11:59:45;102063.59;;;25.55;100.00
70370;BME280;57790;51.356;-2.906;2023-06-22T12:02:46;102058.53;;;25.59;100.00
70370;BME280;57790;51.356;-2.906;2023-06-22T12:05:47;102055.50;;;25.67;100.00
70370;BME280;57790;51.356;-2.906;2023-06-22T12:08:47;102058.03;;;25.68;100.00
70370;BME280;57790;51.356;-2.906;2023-06-22T12:11:48;102063.06;;;25.65;100.00
70370;BME280;57790;51.356;-2.906;2023-06-22T12:14:57;102055.66;;;25.72;100.00
70370;BME280;57790;51.356;-2.906;2023-06-22T12:18:03;102062.53;;;25.74;100.00
70370;BME280;57790;51.356;-2.906;2023-06-22T12:21:04;102066.06;;;25.75;100.00
70370;BME280;57790;51.356;-2.906;2023-06-22T12:24:04;102061.63;;;25.80;100.00
70370;BME280;57790;51.356;-2.906;2023-06-22T12:27:05;102071.41;;;25.82;100.00
70370;BME280;57790;51.356;-2.906;2023-06-22T12:30:05;102061.84;;;25.79;100.00
70370;BME280;57790;51.356;-2.906;2023-06-22T12:33:06;102067.53;;;25.77;100.00
70370;BME280;57790;51.356;-2.906;2023-06-22T12:36:06;102062.09;;;25.77;100.00
70370;BME280;57790;51.356;-2.906;2023-06-22T12:39:07;102060.78;;;25.80;100.00
70370;BME280;57790;51.356;-2.906;2023-06-22T12:42:08;102065.53;;;25.85;100.00
70370;BME280;57790;51.356;-2.906;2023-06-22T12:45:09;102062.81;;;25.85;100.00
70370;BME280;57790;51.356;-2.906;2023-06-22T12:48:09;102061.25;;;25.89;100.00
70370;BME280;57790;51.356;-2.906;2023-06-22T12:51:10;102054.69;;;25.96;100.00
70370;BME280;57790;51.356;-2.906;2023-06-22T12:54:11;102054.69;;;25.96;100.00
70370;BME280;57790;51.356;-2.906;2023-06-22T12:57:11;102057.88;;;25.93;100.00
70370;BME280;57790;51.356;-2.906;2023-06-22T13:00:12;102056.56;;;25.96;100.00
70370;BME280;57790;51.356;-2.906;2023-06-22T13:03:13;102055.03;;;26.00;100.00
70370;BME280;57790;51.356;-2.906;2023-06-22T13:06:13;102062.38;;;25.99;100.00
70370;BME280;57790;51.356;-2.906;2023-06-22T13:09:15;102054.81;;;26.01;100.00
70370;BME280;57790;51.356;-2.906;2023-06-22T13:12:15;102055.19;;;26.05;100.00
70370;BME280;57790;51.356;-2.906;2023-06-22T13:15:16;102050.94;;;26.09;100.00
70370;BME280;57790;51.356;-2.906;2023-06-22T13:18:16;102053.53;;;26.16;100.00
70370;BME280;57790;51.356;-2.906;2023-06-22T13:21:16;102050.13;;;26.20;100.00
70370;BME280;57790;51.356;-2.906;2023-06-22T13:24:17;102057.81;;;26.23;100.00
70370;BME280;57790;51.356;-2.906;2023-06-22T13:27:17;102054.03;;;26.24;100.00
70370;BME280;57790;51.356;-2.906;2023-06-22T13:30:18;102054.03;;;26.24;100.00
70370;BME280;57790;51.356;-2.906;2023-06-22T13:33:18;102056.16;;;26.22;100.00
70370;BME280;57790;51.356;-2.906;2023-06-22T13:36:19;102056.50;;;26.26;100.00
70370;BME280;57790;51.356;-2.906;2023-06-22T13:39:19;102047.28;;;26.27;100.00
70370;BME280;57790;51.356;-2.906;2023-06-22T13:42:20;102048.59;;;26.24;100.00
70370;BME280;57790;51.356;-2.906;2023-06-22T13:45:20;102062.53;;;26.28;100.00
70370;BME280;57790;51.356;-2.906;2023-06-22T13:48:21;102052.84;;;26.32;100.00
70370;BME280;57790;51.356;-2.906;2023-06-22T13:51:23;102050.34;;;26.30;100.00
70370;BME280;57790;51.356;-2.906;2023-06-22T13:54:23;102042.44;;;26.29;100.00
70370;BME280;57790;51.356;-2.906;2023-06-22T13:57:24;102047.41;;;26.32;100.00
70370;BME280;57790;51.356;-2.906;2023-06-22T14:00:24;102050.28;;;26.37;100.00
70370;BME280;57790;51.356;-2.906;2023-06-22T14:03:25;102060.94;;;26.38;100.00
70370;BME280;57790;51.356;-2.906;2023-06-22T14:06:25;102051.72;;;26.39;100.00
70370;BME280;57790;51.356;-2.906;2023-06-22T14:09:25;102056.69;;;26.43;100.00
70370;BME280;57790;51.356;-2.906;2023-06-22T14:12:26;102061.03;;;26.44;100.00
70370;BME280;57790;51.356;-2.906;2023-06-22T14:15:26;102066.84;;;26.47;100.00
70370;BME280;57790;51.356;-2.906;2023-06-22T14:18:27;102078.09;;;26.51;100.00
70370;BME280;57790;51.356;-2.906;2023-06-22T14:21:27;102074.06;;;26.53;100.00
70370;BME280;57790;51.356;-2.906;2023-06-22T14:24:28;102077.97;;;26.57;100.00
70370;BME280;57790;51.356;-2.906;2023-06-22T14:27:28;102071.94;;;26.55;100.00
70370;BME280;57790;51.356;-2.906;2023-06-22T14:30:28;102062.94;;;26.55;100.00
70370;BME280;57790;51.356;-2.906;2023-06-22T14:33:29;102073.34;;;26.58;100.00
70370;BME280;57790;51.356;-2.906;2023-06-22T14:36:29;102067.91;;;26.58;100.00
70370;BME280;57790;51.356;-2.906;2023-06-22T14:39:29;102051.34;;;26.59;100.00
70370;BME280;57790;51.356;-2.906;2023-06-22T14:42:30;102055.28;;;26.63;100.00
70370;BME280;57790;51.356;-2.906;2023-06-22T14:45:30;102065.34;;;26.63;100.00
70370;BME280;57790;51.356;-2.906;2023-06-22T14:48:31;102062.38;;;26.64;100.00
70370;BME280;57790;51.356;-2.906;2023-06-22T14:51:31;102066.16;;;26.63;100.00
70370;BME280;57790;51.356;-2.906;2023-06-22T14:54:31;102064.38;;;26.69;100.00
70370;BME280;57790;51.356;-2.906;2023-06-22T14:57:32;102071.69;;;26.68;100.00
70370;BME280;57790;51.356;-2.906;2023-06-22T15:00:32;102060.00;;;26.68;100.00
70370;BME280;57790;51.356;-2.906;2023-06-22T15:03:34;102069.22;;;26.67;100.00
70370;BME280;57790;51.356;-2.906;2023-06-22T15:06:35;102065.19;;;26.69;100.00
70370;BME280;57790;51.356;-2.906;2023-06-22T15:09:36;102077.72;;;26.71;100.00
70370;BME280;57790;51.356;-2.906;2023-06-22T15:12:39;102078.09;;;26.74;100.00
70370;BME280;57790;51.356;-2.906;2023-06-22T15:15:39;102083.75;;;26.73;100.00
70370;BME280;57790;51.356;-2.906;2023-06-22T15:18:40;102079.16;;;26.73;100.00
70370;BME280;57790;51.356;-2.906;2023-06-22T15:21:41;102068.75;;;26.70;100.00
70370;BME280;57790;51.356;-2.906;2023-06-22T15:24:41;102082.94;;;26.72;100.00